sensor_id;sensor_type;location;lat;lon;timestamp;P1;durP1;ratioP1;P2;durP2;ratioP2
8704;SDS011;4389;41.932;25.904;2023-03-14T00:01:08;7.20;;;3.37;;
8704;SDS011;4389;41.932;25.904;2023-03-14T00:03:38;5.50;;;3.53;;
8704;SDS011;4389;41.932;25.904;2023-03-14T00:06:06;4.60;;;3.00;;
8704;SDS011;4389;41.932;25.904;2023-03-14T00:08:33;4.40;;;3.00;;
8704;SDS011;4389;41.932;25.904;2023-03-14T00:11:03;4.07;;;2.87;;
8704;SDS011;4389;41.932;25.904;2023-03-14T00:13:31;8.27;;;4.23;;
8704;SDS011;4389;41.932;25.904;2023-03-14T00:16:01;4.57;;;3.40;;
8704;SDS011;4389;41.932;25.904;2023-03-14T00:18:28;3.87;;;2.93;;
8704;SDS011;4389;41.932;25.904;2023-03-14T00:20:58;4.50;;;3.00;;
8704;SDS011;4389;41.932;25.904;2023-03-14T00:23:26;10.93;;;7.77;;
8704;SDS011;4389;41.932;25.904;2023-03-14T00:25:53;18.70;;;12.43;;
8704;SDS011;4389;41.932;25.904;2023-03-14T00:28:20;4.33;;;3.50;;
8704;SDS011;4389;41.932;25.904;2023-03-14T00:30:47;5.67;;;3.27;;
8704;SDS011;4389;41.932;25.904;2023-03-14T00:33:14;6.63;;;3.43;;
8704;SDS011;4389;41.932;25.904;2023-03-14T00:35:40;6.67;;;3.63;;
8704;SDS011;4389;41.932;25.904;2023-03-14T00:38:08;5.33;;;3.10;;
8704;SDS011;4389;41.932;25.904;2023-03-14T00:40:38;5.83;;;3.20;;
8704;SDS011;4389;41.932;25.904;2023-03-14T00:43:05;6.03;;;3.50;;
8704;SDS011;4389;41.932;25.904;2023-03-14T00:45:32;5.80;;;3.33;;
8704;SDS011;4389;41.932;25.904;2023-03-14T00:48:00;17.97;;;3.83;;
8704;SDS011;4389;41.932;25.904;2023-03-14T00:50:26;10.47;;;4.03;;
8704;SDS011;4389;41.932;25.904;2023-03-14T00:52:53;19.80;;;4.63;;
8704;SDS011;4389;41.932;25.904;2023-03-14T00:55:21;11.80;;;3.80;;
8704;SDS011;4389;41.932;25.904;2023-03-14T00:57:48;7.97;;;3.60;;
8704;SDS011;4389;41.932;25.904;2023-03-14T01:00:15;7.77;;;3.10;;
8704;SDS011;4389;41.932;25.904;2023-03-14T01:02:43;4.00;;;3.00;;
8704;SDS011;4389;41.932;25.904;2023-03-14T01:05:10;4.07;;;3.27;;
8704;SDS011;4389;41.932;25.904;2023-03-14T01:07:37;3.50;;;2.73;;
8704;SDS011;4389;41.932;25.904;2023-03-14T01:10:04;5.97;;;3.27;;
8704;SDS011;4389;41.932;25.904;2023-03-14T01:12:33;4.83;;;3.03;;
8704;SDS011;4389;41.932;25.904;2023-03-14T01:15:00;8.87;;;5.50;;
8704;SDS011;4389;41.932;25.904;2023-03-14T01:17:27;5.47;;;3.20;;
8704;SDS011;4389;41.932;25.904;2023-03-14T01:19:53;3.10;;;2.50;;
8704;SDS011;4389;41.932;25.904;2023-03-14T01:22:20;4.67;;;3.20;;
8704;SDS011;4389;41.932;25.904;2023-03-14T01:24:47;3.77;;;3.27;;
8704;SDS011;4389;41.932;25.904;2023-03-14T01:27:14;9.43;;;4.57;;
8704;SDS011;4389;41.932;25.904;2023-03-14T01:29:42;5.90;;;4.10;;
8704;SDS011;4389;41.932;25.904;2023-03-14T01:32:09;6.77;;;4.83;;
8704;SDS011;4389;41.932;25.904;2023-03-14T01:34:36;11.20;;;8.07;;
8704;SDS011;4389;41.932;25.904;2023-03-14T01:37:02;18.67;;;11.77;;
8704;SDS011;4389;41.932;25.904;2023-03-14T01:39:29;24.63;;;14.83;;
8704;SDS011;4389;41.932;25.904;2023-03-14T01:41:56;17.80;;;13.20;;
8704;SDS011;4389;41.932;25.904;2023-03-14T01:44:24;15.07;;;9.63;;
8704;SDS011;4389;41.932;25.904;2023-03-14T01:46:52;10.03;;;6.10;;
8704;SDS011;4389;41.932;25.904;2023-03-14T01:49:21;8.73;;;5.90;;
8704;SDS011;4389;41.932;25.904;2023-03-14T01:51:52;10.07;;;7.00;;
8704;SDS011;4389;41.932;25.904;2023-03-14T01:54:24;13.63;;;5.67;;
8704;SDS011;4389;41.932;25.904;2023-03-14T01:56:55;6.57;;;3.50;;
8704;SDS011;4389;41.932;25.904;2023-03-14T01:59:26;5.40;;;3.70;;
8704;SDS011;4389;41.932;25.904;2023-03-14T02:01:57;8.27;;;3.73;;
8704;SDS011;4389;41.932;25.904;2023-03-14T02:04:25;4.83;;;3.77;;
8704;SDS011;4389;41.932;25.904;2023-03-14T02:06:57;6.23;;;4.50;;
8704;SDS011;4389;41.932;25.904;2023-03-14T02:09:26;4.83;;;3.23;;
8704;SDS011;4389;41.932;25.904;2023-03-14T02:11:53;4.53;;;3.30;;
8704;SDS011;4389;41.932;25.904;2023-03-14T02:14:25;5.27;;;3.97;;
8704;SDS011;4389;41.932;25.904;2023-03-14T02:16:57;4.37;;;2.90;;
8704;SDS011;4389;41.932;25.904;2023-03-14T02:19:26;4.40;;;3.30;;
8704;SDS011;4389;41.932;25.904;2023-03-14T02:22:02;4.90;;;3.70;;
8704;SDS011;4389;41.932;25.904;2023-03-14T02:24:35;12.23;;;8.87;;
8704;SDS011;4389;41.932;25.904;2023-03-14T02:27:10;9.47;;;5.43;;
8704;SDS011;4389;41.932;25.904;2023-03-14T02:29:39;8.97;;;6.37;;
8704;SDS011;4389;41.932;25.904;2023-03-14T02:32:11;5.10;;;4.00;;
8704;SDS011;4389;41.932;25.904;2023-03-14T02:34:39;4.80;;;3.63;;
8704;SDS011;4389;41.932;25.904;2023-03-14T02:37:08;7.00;;;4.20;;
8704;SDS011;4389;41.932;25.904;2023-03-14T02:39:37;7.83;;;3.70;;
8704;SDS011;4389;41.932;25.904;2023-03-14T02:42:07;5.10;;;3.90;;
8704;SDS011;4389;41.932;25.904;2023-03-14T02:44:36;5.07;;;4.07;;
8704;SDS011;4389;41.932;25.904;2023-03-14T02:47:13;4.57;;;3.27;;
8704;SDS011;4389;41.932;25.904;2023-03-14T02:49:41;4.53;;;2.97;;
8704;SDS011;4389;41.932;25.904;2023-03-14T02:52:13;8.27;;;3.11;;
8704;SDS011;4389;41.932;25.904;2023-03-14T02:54:39;5.00;;;2.90;;
8704;SDS011;4389;41.932;25.904;2023-03-14T02:57:06;4.47;;;3.03;;
8704;SDS011;4389;41.932;25.904;2023-03-14T02:59:34;7.37;;;3.23;;
8704;SDS011;4389;41.932;25.904;2023-03-14T03:02:01;4.87;;;3.03;;
8704;SDS011;4389;41.932;25.904;2023-03-14T03:04:28;4.50;;;2.87;;
8704;SDS011;4389;41.932;25.904;2023-03-14T03:06:55;9.10;;;3.17;;
8704;SDS011;4389;41.932;25.904;2023-03-14T03:09:22;5.23;;;3.00;;
8704;SDS011;4389;41.932;25.904;2023-03-14T03:11:48;3.20;;;2.87;;
8704;SDS011;4389;41.932;25.904;2023-03-14T03:14:15;6.13;;;3.00;;
8704;SDS011;4389;41.932;25.904;2023-03-14T03:16:43;3.27;;;2.83;;
8704;SDS011;4389;41.932;25.904;2023-03-14T03:19:10;4.43;;;2.90;;
8704;SDS011;4389;41.932;25.904;2023-03-14T03:21:38;4.93;;;2.87;;
8704;SDS011;4389;41.932;25.904;2023-03-14T03:24:05;5.40;;;2.80;;
8704;SDS011;4389;41.932;25.904;2023-03-14T03:26:33;5.53;;;3.03;;
8704;SDS011;4389;41.932;25.904;2023-03-14T03:29:00;6.53;;;3.27;;
8704;SDS011;4389;41.932;25.904;2023-03-14T03:31:27;3.87;;;2.93;;
8704;SDS011;4389;41.932;25.904;2023-03-14T03:33:55;4.93;;;3.00;;
8704;SDS011;4389;41.932;25.904;2023-03-14T03:36:23;4.43;;;3.20;;
8704;SDS011;4389;41.932;25.904;2023-03-14T03:38:51;4.00;;;3.13;;
8704;SDS011;4389;41.932;25.904;2023-03-14T03:41:18;4.20;;;2.87;;
8704;SDS011;4389;41.932;25.904;2023-03-14T03:43:45;5.73;;;3.50;;
8704;SDS011;4389;41.932;25.904;2023-03-14T03:46:12;8.37;;;3.67;;
8704;SDS011;4389;41.932;25.904;2023-03-14T03:48:39;4.53;;;3.27;;
8704;SDS011;4389;41.932;25.904;2023-03-14T03:51:07;10.27;;;5.07;;
8704;SDS011;4389;41.932;25.904;2023-03-14T03:53:39;8.73;;;3.80;;
8704;SDS011;4389;41.932;25.904;2023-03-14T03:56:06;6.73;;;3.93;;
8704;SDS011;4389;41.932;25.904;2023-03-14T03:58:33;6.40;;;4.13;;
8704;SDS011;4389;41.932;25.904;2023-03-14T04:01:00;6.40;;;4.13;;
8704;SDS011;4389;41.932;25.904;2023-03-14T04:03:27;6.23;;;3.27;;
8704;SDS011;4389;41.932;25.904;2023-03-14T04:05:59;4.80;;;3.30;;
8704;SDS011;4389;41.932;25.904;2023-03-14T04:08:27;7.37;;;4.00;;
8704;SDS011;4389;41.932;25.904;2023-03-14T04:10:55;13.17;;;3.80;;
8704;SDS011;4389;41.932;25.904;2023-03-14T04:13:23;5.27;;;3.40;;
8704;SDS011;4389;41.932;25.904;2023-03-14T04:15:50;4.87;;;3.40;;
8704;SDS011;4389;41.932;25.904;2023-03-14T04:18:17;6.07;;;3.50;;
8704;SDS011;4389;41.932;25.904;2023-03-14T04:20:44;9.53;;;3.90;;
8704;SDS011;4389;41.932;25.904;2023-03-14T04:23:11;10.80;;;3.70;;
8704;SDS011;4389;41.932;25.904;2023-03-14T04:25:39;5.23;;;3.73;;
8704;SDS011;4389;41.932;25.904;2023-03-14T04:28:06;10.70;;;4.30;;
8704;SDS011;4389;41.932;25.904;2023-03-14T04:30:33;41.73;;;4.77;;
8704;SDS011;4389;41.932;25.904;2023-03-14T04:33:00;17.57;;;4.30;;
8704;SDS011;4389;41.932;25.904;2023-03-14T04:35:27;6.30;;;3.30;;
8704;SDS011;4389;41.932;25.904;2023-03-14T04:37:56;14.07;;;3.83;;
8704;SDS011;4389;41.932;25.904;2023-03-14T04:40:22;5.80;;;3.40;;
8704;SDS011;4389;41.932;25.904;2023-03-14T04:42:51;14.23;;;3.53;;
8704;SDS011;4389;41.932;25.904;2023-03-14T04:45:18;13.33;;;3.93;;
8704;SDS011;4389;41.932;25.904;2023-03-14T04:47:45;5.47;;;3.67;;
8704;SDS011;4389;41.932;25.904;2023-03-14T04:50:11;5.07;;;3.53;;
8704;SDS011;4389;41.932;25.904;2023-03-14T04:52:38;8.93;;;4.17;;
8704;SDS011;4389;41.932;25.904;2023-03-14T04:55:05;4.63;;;3.97;;
8704;SDS011;4389;41.932;25.904;2023-03-14T04:57:33;5.47;;;3.47;;
8704;SDS011;4389;41.932;25.904;2023-03-14T05:00:01;5.70;;;4.20;;
8704;SDS011;4389;41.932;25.904;2023-03-14T05:02:31;13.87;;;4.37;;
8704;SDS011;4389;41.932;25.904;2023-03-14T05:04:58;6.57;;;3.97;;
8704;SDS011;4389;41.932;25.904;2023-03-14T05:07:25;9.60;;;3.80;;
8704;SDS011;4389;41.932;25.904;2023-03-14T05:09:51;5.30;;;4.10;;
8704;SDS011;4389;41.932;25.904;2023-03-14T05:12:19;25.13;;;5.00;;
8704;SDS011;4389;41.932;25.904;2023-03-14T05:14:46;11.33;;;3.70;;
8704;SDS011;4389;41.932;25.904;2023-03-14T05:17:14;11.70;;;4.70;;
8704;SDS011;4389;41.932;25.904;2023-03-14T05:19:41;29.47;;;5.10;;
8704;SDS011;4389;41.932;25.904;2023-03-14T05:22:08;6.20;;;4.73;;
8704;SDS011;4389;41.932;25.904;2023-03-14T05:24:36;9.47;;;4.60;;
8704;SDS011;4389;41.932;25.904;2023-03-14T05:27:03;17.70;;;5.57;;
8704;SDS011;4389;41.932;25.904;2023-03-14T05:29:30;18.97;;;5.57;;
8704;SDS011;4389;41.932;25.904;2023-03-14T05:31:57;8.80;;;4.57;;
8704;SDS011;4389;41.932;25.904;2023-03-14T05:34:25;14.20;;;6.00;;
8704;SDS011;4389;41.932;25.904;2023-03-14T05:36:52;10.17;;;5.60;;
8704;SDS011;4389;41.932;25.904;2023-03-14T05:39:20;12.53;;;5.37;;
8704;SDS011;4389;41.932;25.904;2023-03-14T05:41:46;11.77;;;6.20;;
8704;SDS011;4389;41.932;25.904;2023-03-14T05:44:13;16.37;;;6.40;;
8704;SDS011;4389;41.932;25.904;2023-03-14T05:46:40;8.03;;;5.70;;
8704;SDS011;4389;41.932;25.904;2023-03-14T05:49:07;8.83;;;5.53;;
8704;SDS011;4389;41.932;25.904;2023-03-14T05:51:35;8.83;;;6.67;;
8704;SDS011;4389;41.932;25.904;2023-03-14T05:54:01;10.40;;;6.10;;
8704;SDS011;4389;41.932;25.904;2023-03-14T05:56:28;9.03;;;6.20;;
8704;SDS011;4389;41.932;25.904;2023-03-14T05:58:55;16.87;;;7.77;;
8704;SDS011;4389;41.932;25.904;2023-03-14T06:01:22;15.47;;;7.63;;
8704;SDS011;4389;41.932;25.904;2023-03-14T06:03:49;30.53;;;9.00;;
8704;SDS011;4389;41.932;25.904;2023-03-14T06:06:16;13.37;;;8.43;;
8704;SDS011;4389;41.932;25.904;2023-03-14T06:08:44;12.33;;;7.47;;
8704;SDS011;4389;41.932;25.904;2023-03-14T06:11:11;12.27;;;8.00;;
8704;SDS011;4389;41.932;25.904;2023-03-14T06:13:38;17.27;;;9.37;;
8704;SDS011;4389;41.932;25.904;2023-03-14T06:16:05;8.50;;;6.27;;
8704;SDS011;4389;41.932;25.904;2023-03-14T06:18:32;10.47;;;6.33;;
8704;SDS011;4389;41.932;25.904;2023-03-14T06:20:59;13.37;;;7.87;;
8704;SDS011;4389;41.932;25.904;2023-03-14T06:23:26;12.30;;;6.97;;
8704;SDS011;4389;41.932;25.904;2023-03-14T06:25:57;8.97;;;6.60;;
8704;SDS011;4389;41.932;25.904;2023-03-14T06:28:24;11.63;;;6.10;;
8704;SDS011;4389;41.932;25.904;2023-03-14T06:30:51;12.67;;;7.23;;
8704;SDS011;4389;41.932;25.904;2023-03-14T06:33:17;7.90;;;5.73;;
8704;SDS011;4389;41.932;25.904;2023-03-14T06:35:44;8.17;;;5.80;;
8704;SDS011;4389;41.932;25.904;2023-03-14T06:38:11;8.13;;;6.03;;
8704;SDS011;4389;41.932;25.904;2023-03-14T06:40:38;14.87;;;6.97;;
8704;SDS011;4389;41.932;25.904;2023-03-14T06:43:06;19.17;;;7.40;;
8704;SDS011;4389;41.932;25.904;2023-03-14T06:45:33;13.33;;;6.93;;
8704;SDS011;4389;41.932;25.904;2023-03-14T06:47:59;13.60;;;6.27;;
8704;SDS011;4389;41.932;25.904;2023-03-14T06:50:26;9.57;;;5.70;;
8704;SDS011;4389;41.932;25.904;2023-03-14T06:52:53;10.80;;;7.07;;
8704;SDS011;4389;41.932;25.904;2023-03-14T06:55:20;31.57;;;8.70;;
8704;SDS011;4389;41.932;25.904;2023-03-14T06:57:47;63.23;;;40.20;;
8704;SDS011;4389;41.932;25.904;2023-03-14T07:00:15;17.40;;;9.83;;
8704;SDS011;4389;41.932;25.904;2023-03-14T07:02:42;15.17;;;9.40;;
8704;SDS011;4389;41.932;25.904;2023-03-14T07:05:09;15.43;;;10.40;;
8704;SDS011;4389;41.932;25.904;2023-03-14T07:07:36;13.80;;;10.97;;
8704;SDS011;4389;41.932;25.904;2023-03-14T07:10:03;33.43;;;11.90;;
8704;SDS011;4389;41.932;25.904;2023-03-14T07:12:31;21.57;;;13.60;;
8704;SDS011;4389;41.932;25.904;2023-03-14T07:14:57;16.50;;;12.10;;
8704;SDS011;4389;41.932;25.904;2023-03-14T07:17:26;15.40;;;11.57;;
8704;SDS011;4389;41.932;25.904;2023-03-14T07:19:53;37.97;;;12.40;;
8704;SDS011;4389;41.932;25.904;2023-03-14T07:22:20;19.73;;;12.30;;
8704;SDS011;4389;41.932;25.904;2023-03-14T07:24:46;17.67;;;10.07;;
8704;SDS011;4389;41.932;25.904;2023-03-14T07:27:13;13.50;;;9.87;;
8704;SDS011;4389;41.932;25.904;2023-03-14T07:29:40;7.57;;;6.03;;
8704;SDS011;4389;41.932;25.904;2023-03-14T07:32:07;14.93;;;7.93;;
8704;SDS011;4389;41.932;25.904;2023-03-14T07:34:36;12.13;;;7.90;;
8704;SDS011;4389;41.932;25.904;2023-03-14T07:37:02;11.20;;;8.23;;
8704;SDS011;4389;41.932;25.904;2023-03-14T07:39:30;12.80;;;8.97;;
8704;SDS011;4389;41.932;25.904;2023-03-14T07:41:57;13.53;;;7.83;;
8704;SDS011;4389;41.932;25.904;2023-03-14T07:44:24;7.83;;;6.80;;
8704;SDS011;4389;41.932;25.904;2023-03-14T07:46:51;9.10;;;6.20;;
8704;SDS011;4389;41.932;25.904;2023-03-14T07:49:17;11.17;;;7.77;;
8704;SDS011;4389;41.932;25.904;2023-03-14T07:51:48;9.50;;;6.17;;
8704;SDS011;4389;41.932;25.904;2023-03-14T07:54:15;14.43;;;9.33;;
8704;SDS011;4389;41.932;25.904;2023-03-14T07:56:42;6.00;;;3.87;;
8704;SDS011;4389;41.932;25.904;2023-03-14T07:59:09;5.60;;;3.77;;
8704;SDS011;4389;41.932;25.904;2023-03-14T08:01:36;5.43;;;4.00;;
8704;SDS011;4389;41.932;25.904;2023-03-14T08:04:04;11.10;;;5.57;;
8704;SDS011;4389;41.932;25.904;2023-03-14T08:06:31;10.20;;;5.00;;
8704;SDS011;4389;41.932;25.904;2023-03-14T08:08:59;9.27;;;5.07;;
8704;SDS011;4389;41.932;25.904;2023-03-14T08:11:26;11.70;;;5.10;;
8704;SDS011;4389;41.932;25.904;2023-03-14T08:13:53;10.80;;;5.57;;
8704;SDS011;4389;41.932;25.904;2023-03-14T08:16:19;14.90;;;5.47;;
8704;SDS011;4389;41.932;25.904;2023-03-14T08:18:46;12.43;;;4.87;;
8704;SDS011;4389;41.932;25.904;2023-03-14T08:21:13;9.67;;;3.73;;
8704;SDS011;4389;41.932;25.904;2023-03-14T08:23:40;5.17;;;3.03;;
8704;SDS011;4389;41.932;25.904;2023-03-14T08:26:08;3.73;;;3.30;;
8704;SDS011;4389;41.932;25.904;2023-03-14T08:28:35;7.40;;;3.87;;
8704;SDS011;4389;41.932;25.904;2023-03-14T08:31:02;9.27;;;3.60;;
8704;SDS011;4389;41.932;25.904;2023-03-14T08:33:29;4.47;;;2.93;;
8704;SDS011;4389;41.932;25.904;2023-03-14T08:35:57;6.43;;;2.50;;
8704;SDS011;4389;41.932;25.904;2023-03-14T08:38:25;5.67;;;3.33;;
8704;SDS011;4389;41.932;25.904;2023-03-14T08:40:55;8.67;;;3.33;;
8704;SDS011;4389;41.932;25.904;2023-03-14T08:43:24;5.70;;;2.73;;
8704;SDS011;4389;41.932;25.904;2023-03-14T08:45:51;3.57;;;2.30;;
8704;SDS011;4389;41.932;25.904;2023-03-14T08:48:18;5.20;;;2.33;;
8704;SDS011;4389;41.932;25.904;2023-03-14T08:50:46;4.67;;;2.63;;
8704;SDS011;4389;41.932;25.904;2023-03-14T08:53:13;2.87;;;2.30;;
8704;SDS011;4389;41.932;25.904;2023-03-14T08:55:40;8.37;;;4.20;;
8704;SDS011;4389;41.932;25.904;2023-03-14T08:58:07;9.00;;;7.03;;
8704;SDS011;4389;41.932;25.904;2023-03-14T09:00:35;7.43;;;4.13;;
8704;SDS011;4389;41.932;25.904;2023-03-14T09:03:02;5.27;;;2.37;;
8704;SDS011;4389;41.932;25.904;2023-03-14T09:05:29;2.83;;;2.40;;
8704;SDS011;4389;41.932;25.904;2023-03-14T09:07:59;6.77;;;2.20;;
8704;SDS011;4389;41.932;25.904;2023-03-14T09:10:26;20.03;;;3.63;;
8704;SDS011;4389;41.932;25.904;2023-03-14T09:12:53;3.63;;;2.20;;
8704;SDS011;4389;41.932;25.904;2023-03-14T09:15:19;13.17;;;6.10;;
8704;SDS011;4389;41.932;25.904;2023-03-14T09:17:48;7.07;;;2.90;;
8704;SDS011;4389;41.932;25.904;2023-03-14T09:20:19;24.27;;;4.80;;
8704;SDS011;4389;41.932;25.904;2023-03-14T09:22:46;5.70;;;3.67;;
8704;SDS011;4389;41.932;25.904;2023-03-14T09:25:12;11.37;;;4.83;;
8704;SDS011;4389;41.932;25.904;2023-03-14T09:27:39;8.43;;;5.80;;
8704;SDS011;4389;41.932;25.904;2023-03-14T09:30:06;5.00;;;2.27;;
8704;SDS011;4389;41.932;25.904;2023-03-14T09:32:34;7.20;;;2.20;;
8704;SDS011;4389;41.932;25.904;2023-03-14T09:35:02;4.10;;;1.70;;
8704;SDS011;4389;41.932;25.904;2023-03-14T09:37:30;69.93;;;6.93;;
8704;SDS011;4389;41.932;25.904;2023-03-14T09:39:57;3.40;;;2.23;;
8704;SDS011;4389;41.932;25.904;2023-03-14T09:42:25;4.20;;;2.40;;
8704;SDS011;4389;41.932;25.904;2023-03-14T09:44:54;7.23;;;3.43;;
8704;SDS011;4389;41.932;25.904;2023-03-14T09:47:23;3.83;;;2.57;;
8704;SDS011;4389;41.932;25.904;2023-03-14T09:49:51;7.83;;;2.50;;
8704;SDS011;4389;41.932;25.904;2023-03-14T09:52:21;5.80;;;2.50;;
8704;SDS011;4389;41.932;25.904;2023-03-14T09:54:52;6.70;;;3.03;;
8704;SDS011;4389;41.932;25.904;2023-03-14T09:57:21;4.30;;;2.63;;
8704;SDS011;4389;41.932;25.904;2023-03-14T09:59:51;8.37;;;3.63;;
8704;SDS011;4389;41.932;25.904;2023-03-14T10:02:21;10.93;;;2.47;;
8704;SDS011;4389;41.932;25.904;2023-03-14T10:04:49;4.50;;;2.40;;
8704;SDS011;4389;41.932;25.904;2023-03-14T10:07:18;19.03;;;3.57;;
8704;SDS011;4389;41.932;25.904;2023-03-14T10:09:49;10.68;;;3.45;;
8704;SDS011;4389;41.932;25.904;2023-03-14T10:12:17;4.07;;;1.70;;
8704;SDS011;4389;41.932;25.904;2023-03-14T10:14:45;3.17;;;1.60;;
8704;SDS011;4389;41.932;25.904;2023-03-14T10:17:14;5.63;;;2.00;;
8704;SDS011;4389;41.932;25.904;2023-03-14T10:19:52;2.33;;;1.80;;
8704;SDS011;4389;41.932;25.904;2023-03-14T10:22:22;13.10;;;3.93;;
8704;SDS011;4389;41.932;25.904;2023-03-14T10:24:53;8.83;;;5.17;;
8704;SDS011;4389;41.932;25.904;2023-03-14T10:27:26;13.77;;;2.93;;
8704;SDS011;4389;41.932;25.904;2023-03-14T10:29:55;4.60;;;2.50;;
8704;SDS011;4389;41.932;25.904;2023-03-14T10:32:27;6.53;;;2.40;;
8704;SDS011;4389;41.932;25.904;2023-03-14T10:35:06;9.67;;;4.27;;
8704;SDS011;4389;41.932;25.904;2023-03-14T10:37:36;5.43;;;3.27;;
8704;SDS011;4389;41.932;25.904;2023-03-14T10:40:16;7.13;;;2.57;;
8704;SDS011;4389;41.932;25.904;2023-03-14T10:42:45;4.33;;;1.57;;
8704;SDS011;4389;41.932;25.904;2023-03-14T10:48:06;3.77;;;2.30;;
8704;SDS011;4389;41.932;25.904;2023-03-14T10:50:48;3.17;;;1.70;;
8704;SDS011;4389;41.932;25.904;2023-03-14T10:53:17;4.07;;;2.10;;
8704;SDS011;4389;41.932;25.904;2023-03-14T10:55:45;7.37;;;3.87;;
8704;SDS011;4389;41.932;25.904;2023-03-14T10:58:19;6.13;;;4.20;;
8704;SDS011;4389;41.932;25.904;2023-03-14T11:00:47;10.10;;;6.80;;
8704;SDS011;4389;41.932;25.904;2023-03-14T11:03:20;9.37;;;3.13;;
8704;SDS011;4389;41.932;25.904;2023-03-14T11:05:49;2.63;;;1.80;;
8704;SDS011;4389;41.932;25.904;2023-03-14T11:08:25;3.67;;;1.70;;
8704;SDS011;4389;41.932;25.904;2023-03-14T11:11:02;3.33;;;1.83;;
8704;SDS011;4389;41.932;25.904;2023-03-14T11:13:38;7.27;;;2.63;;
8704;SDS011;4389;41.932;25.904;2023-03-14T11:16:13;2.70;;;1.83;;
8704;SDS011;4389;41.932;25.904;2023-03-14T11:18:58;9.30;;;2.57;;
8704;SDS011;4389;41.932;25.904;2023-03-14T11:21:35;1.53;;;1.40;;
8704;SDS011;4389;41.932;25.904;2023-03-14T11:24:18;5.43;;;1.30;;
8704;SDS011;4389;41.932;25.904;2023-03-14T11:26:54;9.07;;;2.30;;
8704;SDS011;4389;41.932;25.904;2023-03-14T11:29:28;5.10;;;2.73;;
8704;SDS011;4389;41.932;25.904;2023-03-14T11:32:03;2.53;;;2.03;;
8704;SDS011;4389;41.932;25.904;2023-03-14T11:34:39;6.60;;;4.20;;
8704;SDS011;4389;41.932;25.904;2023-03-14T11:37:13;12.60;;;6.77;;
8704;SDS011;4389;41.932;25.904;2023-03-14T11:39:45;10.87;;;3.67;;
8704;SDS011;4389;41.932;25.904;2023-03-14T11:42:17;5.10;;;2.30;;
8704;SDS011;4389;41.932;25.904;2023-03-14T11:44:46;4.57;;;2.80;;
8704;SDS011;4389;41.932;25.904;2023-03-14T11:47:15;7.33;;;3.20;;
8704;SDS011;4389;41.932;25.904;2023-03-14T11:49:47;2.17;;;1.97;;
8704;SDS011;4389;41.932;25.904;2023-03-14T11:52:19;3.07;;;2.10;;
8704;SDS011;4389;41.932;25.904;2023-03-14T11:54:52;7.73;;;3.17;;
8704;SDS011;4389;41.932;25.904;2023-03-14T11:57:22;6.00;;;2.57;;
8704;SDS011;4389;41.932;25.904;2023-03-14T11:59:51;6.93;;;4.37;;
8704;SDS011;4389;41.932;25.904;2023-03-14T12:02:22;6.50;;;2.33;;
8704;SDS011;4389;41.932;25.904;2023-03-14T12:05:05;9.07;;;3.50;;
8704;SDS011;4389;41.932;25.904;2023-03-14T12:07:58;10.10;;;3.23;;
8704;SDS011;4389;41.932;25.904;2023-03-14T12:10:48;1.83;;;1.73;;
8704;SDS011;4389;41.932;25.904;2023-03-14T12:13:17;4.60;;;1.70;;
8704;SDS011;4389;41.932;25.904;2023-03-14T12:15:46;4.67;;;2.43;;
8704;SDS011;4389;41.932;25.904;2023-03-14T12:18:19;8.20;;;2.97;;
8704;SDS011;4389;41.932;25.904;2023-03-14T12:20:53;3.27;;;2.53;;
8704;SDS011;4389;41.932;25.904;2023-03-14T12:23:22;6.47;;;2.10;;
8704;SDS011;4389;41.932;25.904;2023-03-14T12:28:48;4.33;;;2.67;;
8704;SDS011;4389;41.932;25.904;2023-03-14T12:34:02;7.00;;;3.27;;
8704;SDS011;4389;41.932;25.904;2023-03-14T12:39:31;3.10;;;2.20;;
8704;SDS011;4389;41.932;25.904;2023-03-14T12:42:04;8.80;;;3.30;;
8704;SDS011;4389;41.932;25.904;2023-03-14T12:44:40;16.73;;;2.93;;
8704;SDS011;4389;41.932;25.904;2023-03-14T12:50:25;7.50;;;4.20;;
8704;SDS011;4389;41.932;25.904;2023-03-14T12:56:27;12.30;;;4.03;;
8704;SDS011;4389;41.932;25.904;2023-03-14T12:59:16;5.73;;;2.90;;
8704;SDS011;4389;41.932;25.904;2023-03-14T13:01:55;9.40;;;3.30;;
8704;SDS011;4389;41.932;25.904;2023-03-14T13:04:27;4.30;;;2.00;;
8704;SDS011;4389;41.932;25.904;2023-03-14T13:06:57;3.43;;;2.33;;
8704;SDS011;4389;41.932;25.904;2023-03-14T13:09:35;3.63;;;2.40;;
8704;SDS011;4389;41.932;25.904;2023-03-14T13:12:19;3.07;;;2.17;;
8704;SDS011;4389;41.932;25.904;2023-03-14T13:14:52;2.47;;;1.83;;
8704;SDS011;4389;41.932;25.904;2023-03-14T13:17:24;18.90;;;3.97;;
8704;SDS011;4389;41.932;25.904;2023-03-14T13:19:53;2.93;;;1.97;;
8704;SDS011;4389;41.932;25.904;2023-03-14T13:22:24;7.33;;;4.90;;
8704;SDS011;4389;41.932;25.904;2023-03-14T13:24:58;3.83;;;2.20;;
8704;SDS011;4389;41.932;25.904;2023-03-14T13:27:26;2.83;;;1.63;;
8704;SDS011;4389;41.932;25.904;2023-03-14T13:29:56;4.17;;;1.50;;
8704;SDS011;4389;41.932;25.904;2023-03-14T13:32:27;3.83;;;1.77;;
8704;SDS011;4389;41.932;25.904;2023-03-14T13:34:55;2.43;;;1.30;;
8704;SDS011;4389;41.932;25.904;2023-03-14T13:37:23;2.30;;;1.50;;
8704;SDS011;4389;41.932;25.904;2023-03-14T13:39:52;5.57;;;1.83;;
8704;SDS011;4389;41.932;25.904;2023-03-14T13:42:21;3.47;;;1.70;;
8704;SDS011;4389;41.932;25.904;2023-03-14T13:44:53;4.20;;;1.53;;
8704;SDS011;4389;41.932;25.904;2023-03-14T13:47:23;2.47;;;1.73;;
8704;SDS011;4389;41.932;25.904;2023-03-14T13:49:52;2.60;;;1.60;;
8704;SDS011;4389;41.932;25.904;2023-03-14T13:52:24;2.77;;;1.63;;
8704;SDS011;4389;41.932;25.904;2023-03-14T13:54:54;9.43;;;2.83;;
8704;SDS011;4389;41.932;25.904;2023-03-14T13:57:21;5.03;;;1.83;;
8704;SDS011;4389;41.932;25.904;2023-03-14T13:59:58;3.30;;;1.50;;
8704;SDS011;4389;41.932;25.904;2023-03-14T14:02:29;3.37;;;2.10;;
8704;SDS011;4389;41.932;25.904;2023-03-14T14:04:59;6.93;;;1.87;;
8704;SDS011;4389;41.932;25.904;2023-03-14T14:07:26;2.90;;;1.90;;
8704;SDS011;4389;41.932;25.904;2023-03-14T14:09:54;5.07;;;2.33;;
8704;SDS011;4389;41.932;25.904;2023-03-14T14:12:22;2.50;;;2.27;;
8704;SDS011;4389;41.932;25.904;2023-03-14T14:14:55;6.37;;;3.27;;
8704;SDS011;4389;41.932;25.904;2023-03-14T14:17:26;2.53;;;1.67;;
8704;SDS011;4389;41.932;25.904;2023-03-14T14:19:59;3.47;;;2.00;;
8704;SDS011;4389;41.932;25.904;2023-03-14T14:22:28;12.00;;;3.17;;
8704;SDS011;4389;41.932;25.904;2023-03-14T14:24:56;2.97;;;2.20;;
8704;SDS011;4389;41.932;25.904;2023-03-14T14:27:24;2.80;;;1.60;;
8704;SDS011;4389;41.932;25.904;2023-03-14T14:29:57;5.03;;;2.20;;
8704;SDS011;4389;41.932;25.904;2023-03-14T14:32:26;2.63;;;2.00;;
8704;SDS011;4389;41.932;25.904;2023-03-14T14:35:01;3.77;;;3.33;;
8704;SDS011;4389;41.932;25.904;2023-03-14T14:37:29;5.07;;;2.30;;
8704;SDS011;4389;41.932;25.904;2023-03-14T14:39:59;5.60;;;2.33;;
8704;SDS011;4389;41.932;25.904;2023-03-14T14:42:29;3.10;;;2.20;;
8704;SDS011;4389;41.932;25.904;2023-03-14T14:44:57;12.77;;;3.10;;
8704;SDS011;4389;41.932;25.904;2023-03-14T14:47:26;10.13;;;2.90;;
8704;SDS011;4389;41.932;25.904;2023-03-14T14:49:57;10.63;;;2.13;;
8704;SDS011;4389;41.932;25.904;2023-03-14T14:52:33;8.00;;;2.23;;
8704;SDS011;4389;41.932;25.904;2023-03-14T14:55:11;5.40;;;2.57;;
8704;SDS011;4389;41.932;25.904;2023-03-14T14:57:39;4.57;;;2.93;;
8704;SDS011;4389;41.932;25.904;2023-03-14T15:00:08;5.80;;;3.47;;
8704;SDS011;4389;41.932;25.904;2023-03-14T15:02:38;8.20;;;4.90;;
8704;SDS011;4389;41.932;25.904;2023-03-14T15:05:11;7.20;;;3.13;;
8704;SDS011;4389;41.932;25.904;2023-03-14T15:07:41;8.80;;;4.13;;
8704;SDS011;4389;41.932;25.904;2023-03-14T15:10:09;5.00;;;3.27;;
8704;SDS011;4389;41.932;25.904;2023-03-14T15:12:37;4.10;;;2.57;;
8704;SDS011;4389;41.932;25.904;2023-03-14T15:15:04;7.40;;;2.63;;
8704;SDS011;4389;41.932;25.904;2023-03-14T15:17:32;8.17;;;3.00;;
8704;SDS011;4389;41.932;25.904;2023-03-14T15:19:58;5.03;;;2.93;;
8704;SDS011;4389;41.932;25.904;2023-03-14T15:22:25;4.50;;;2.80;;
8704;SDS011;4389;41.932;25.904;2023-03-14T15:24:53;4.83;;;3.37;;
8704;SDS011;4389;41.932;25.904;2023-03-14T15:27:20;6.23;;;4.07;;